createdAt,value
2017-02-02T00:00:51.953Z,99.99
2017-02-02T00:03:04.143Z,99.99
2017-02-02T00:05:16.353Z,99.99
2017-02-02T00:07:28.654Z,99.99
2017-02-02T00:09:40.833Z,99.99
2017-02-02T00:11:52.976Z,99.99
2017-02-02T00:14:06.082Z,99.99
2017-02-02T00:16:18.345Z,99.99
2017-02-02T00:18:30.694Z,99.99
2017-02-02T00:20:41.362Z,99.99
2017-02-02T00:22:53.557Z,99.99
2017-02-02T00:25:05.781Z,99.99
2017-02-02T00:27:18.141Z,99.99
2017-02-02T00:29:30.416Z,99.99
2017-02-02T00:31:42.738Z,99.99
2017-02-02T00:33:54.965Z,99.99
2017-02-02T00:36:07.154Z,99.99
2017-02-02T00:38:19.249Z,99.99
2017-02-02T00:40:31.544Z,99.99
2017-02-02T00:42:43.768Z,99.99
2017-02-02T00:44:55.927Z,99.99
2017-02-02T00:47:08.203Z,99.99
2017-02-02T00:49:20.727Z,99.99
2017-02-02T00:51:33.150Z,99.99
2017-02-02T00:53:45.428Z,99.99
2017-02-02T00:55:57.740Z,99.99
2017-02-02T00:58:05.148Z,99.99
2017-02-02T01:00:17.349Z,99.99
2017-02-02T01:02:29.656Z,99.99
2017-02-02T01:04:41.921Z,99.99
2017-02-02T01:06:49.249Z,99.99
2017-02-02T01:09:01.620Z,99.99
2017-02-02T01:11:14.030Z,99.99
2017-02-02T01:13:26.231Z,99.99
2017-02-02T01:15:38.555Z,99.99
2017-02-02T01:17:50.745Z,99.99
2017-02-02T01:20:03.574Z,99.99
2017-02-02T01:22:16.356Z,99.99
2017-02-02T01:24:28.955Z,99.99
2017-02-02T01:26:41.281Z,99.99
2017-02-02T01:28:53.615Z,99.99
2017-02-02T01:31:05.868Z,99.99
2017-02-02T01:33:18.142Z,99.99
2017-02-02T01:35:30.465Z,99.99
2017-02-02T01:37:42.773Z,99.99
2017-02-02T01:39:54.987Z,99.99
2017-02-02T01:42:07.203Z,99.99
2017-02-02T01:44:19.451Z,99.99
2017-02-02T01:46:31.687Z,99.99
2017-02-02T01:48:43.988Z,99.99
2017-02-02T01:50:54.490Z,99.99
2017-02-02T01:53:06.695Z,99.99
2017-02-02T01:55:19.187Z,99.99
2017-02-02T01:57:31.837Z,99.99
2017-02-02T01:59:44.169Z,99.99
2017-02-02T02:01:56.442Z,99.99
2017-02-02T02:04:08.613Z,99.99
2017-02-02T02:06:20.955Z,99.99
2017-02-02T02:08:33.121Z,99.99
2017-02-02T02:10:45.338Z,99.99
2017-02-02T02:12:57.556Z,99.99
2017-02-02T02:15:04.905Z,99.99
2017-02-02T02:17:17.151Z,99.99
2017-02-02T02:19:29.323Z,99.99
2017-02-02T02:21:41.637Z,99.99
2017-02-02T02:23:53.947Z,99.99
2017-02-02T02:26:06.234Z,99.99
2017-02-02T02:28:18.410Z,99.99
2017-02-02T02:30:31.484Z,99.99
2017-02-02T02:32:44.050Z,99.99
2017-02-02T02:34:56.236Z,99.99
2017-02-02T02:37:08.607Z,99.99
2017-02-02T02:39:20.769Z,99.99
2017-02-02T02:41:32.958Z,99.99
2017-02-02T02:43:45.298Z,99.99
2017-02-02T02:45:57.580Z,99.99
2017-02-02T02:48:09.998Z,99.99
2017-02-02T02:50:22.304Z,99.99
2017-02-02T02:52:34.676Z,99.99
2017-02-02T02:54:45.241Z,99.99
2017-02-02T02:56:57.368Z,99.99
2017-02-02T02:59:09.646Z,99.99
2017-02-02T03:01:21.934Z,99.99
2017-02-02T03:03:34.370Z,99.99
2017-02-02T03:05:47.275Z,99.99
2017-02-02T03:07:59.790Z,99.99
2017-02-02T03:10:11.985Z,99.99
2017-02-02T03:12:24.273Z,99.99
2017-02-02T03:14:36.476Z,99.99
2017-02-02T03:16:48.665Z,99.99
2017-02-02T03:18:51.108Z,99.99
2017-02-02T03:21:03.622Z,99.99
2017-02-02T03:23:15.829Z,99.99
2017-02-02T03:25:28.041Z,99.99
2017-02-02T03:27:38.517Z,99.99
2017-02-02T03:29:50.695Z,99.99
2017-02-02T03:32:02.828Z,99.99
2017-02-02T03:34:15.092Z,99.99
2017-02-02T03:36:27.838Z,99.99
2017-02-02T03:38:40.412Z,99.99
2017-02-02T03:40:53.351Z,99.99
2017-02-02T03:43:05.661Z,99.99
2017-02-02T03:45:17.831Z,99.99
2017-02-02T03:47:30.112Z,99.99
2017-02-02T03:49:37.239Z,99.99
2017-02-02T03:51:49.458Z,99.99
2017-02-02T03:54:01.707Z,99.99
2017-02-02T03:56:13.995Z,99.99
2017-02-02T03:58:26.533Z,99.99
2017-02-02T04:00:38.822Z,99.99
2017-02-02T04:02:50.932Z,99.99
2017-02-02T04:05:03.141Z,99.99
2017-02-02T04:07:15.529Z,99.99
2017-02-02T04:09:22.897Z,99.99
2017-02-02T04:11:35.060Z,99.99
2017-02-02T04:13:47.436Z,99.99
2017-02-02T04:16:00.137Z,99.99
2017-02-02T04:18:12.301Z,99.99
2017-02-02T04:20:24.638Z,99.99
2017-02-02T04:22:36.831Z,99.99
2017-02-02T04:24:43.985Z,99.99
2017-02-02T04:26:56.603Z,99.99
2017-02-02T04:29:08.976Z,99.99
2017-02-02T04:31:21.300Z,99.99
2017-02-02T04:33:33.649Z,99.99
2017-02-02T04:35:46.080Z,99.99
2017-02-02T04:37:58.336Z,99.99
2017-02-02T04:40:10.750Z,99.99
2017-02-02T04:42:23.172Z,99.99
2017-02-02T04:44:35.293Z,99.99
2017-02-02T04:46:47.410Z,99.99
2017-02-02T04:48:59.915Z,99.99
2017-02-02T04:51:12.515Z,99.99
2017-02-02T04:53:24.898Z,99.99
2017-02-02T04:55:35.346Z,99.99
2017-02-02T04:57:47.506Z,99.99
2017-02-02T05:00:00.010Z,99.99
2017-02-02T05:02:12.332Z,99.99
2017-02-02T05:04:24.867Z,99.99
2017-02-02T05:06:37.017Z,99.99
2017-02-02T05:08:49.224Z,99.99
2017-02-02T05:11:01.416Z,99.99
2017-02-02T05:13:13.819Z,99.99
2017-02-02T05:15:26.140Z,99.99
2017-02-02T05:17:38.425Z,99.99
2017-02-02T05:19:50.818Z,99.99
2017-02-02T05:22:03.098Z,99.99
2017-02-02T05:24:15.757Z,99.99
2017-02-02T05:26:28.023Z,99.99
2017-02-02T05:28:40.320Z,99.99
2017-02-02T05:30:52.464Z,99.99
2017-02-02T05:33:04.866Z,99.99
2017-02-02T05:35:17.152Z,99.99
2017-02-02T05:37:29.338Z,99.99
2017-02-02T05:39:41.498Z,99.99
2017-02-02T05:41:53.635Z,99.99
2017-02-02T05:44:06.083Z,99.99
2017-02-02T05:46:18.312Z,99.99
2017-02-02T05:48:30.643Z,99.99
2017-02-02T05:50:42.753Z,99.99
2017-02-02T05:52:54.950Z,99.99
2017-02-02T05:55:07.256Z,99.99
2017-02-02T05:57:19.660Z,99.99
2017-02-02T05:59:31.931Z,99.99
2017-02-02T06:01:44.084Z,99.99
2017-02-02T06:06:02.287Z,99.99
2017-02-02T06:08:14.525Z,99.99
2017-02-02T06:10:26.722Z,99.99
2017-02-02T06:12:38.871Z,99.99
2017-02-02T06:14:50.995Z,99.99
2017-02-02T06:17:03.267Z,99.99
2017-02-02T06:19:15.585Z,99.99
2017-02-02T06:21:27.720Z,99.99
2017-02-02T06:23:39.985Z,99.99
2017-02-02T06:25:52.251Z,99.99
2017-02-02T06:28:04.440Z,99.99
2017-02-02T06:30:16.758Z,99.99
2017-02-02T06:32:29.416Z,99.99
2017-02-02T06:34:41.802Z,99.99
2017-02-02T06:36:53.990Z,99.99
2017-02-02T06:39:06.229Z,99.99
2017-02-02T06:41:18.498Z,99.99
2017-02-02T06:43:31.205Z,99.99
2017-02-02T06:45:43.410Z,99.99
2017-02-02T06:47:55.963Z,99.99
2017-02-02T06:50:08.222Z,99.99
2017-02-02T06:52:20.352Z,99.99
2017-02-02T06:54:32.738Z,99.99
2017-02-02T06:56:44.969Z,99.99
2017-02-02T06:58:57.226Z,99.99
2017-02-02T07:01:10.255Z,99.99
2017-02-02T07:03:22.436Z,99.99
2017-02-02T07:05:34.635Z,99.99
2017-02-02T07:07:42.494Z,99.99
2017-02-02T07:09:55.162Z,99.99
2017-02-02T07:12:07.544Z,99.99
2017-02-02T07:14:19.881Z,99.99
2017-02-02T07:16:30.817Z,99.99
2017-02-02T07:18:41.476Z,99.99
2017-02-02T07:20:48.849Z,99.99
2017-02-02T07:23:01.185Z,99.99
2017-02-02T07:25:13.391Z,99.99
2017-02-02T07:27:25.790Z,99.99
2017-02-02T07:29:37.930Z,99.99
2017-02-02T07:31:50.172Z,99.99
2017-02-02T07:34:02.477Z,99.99
2017-02-02T07:36:16.443Z,99.99
2017-02-02T07:38:28.711Z,99.99
2017-02-02T07:40:41.026Z,99.99
2017-02-02T07:42:54.677Z,99.99
2017-02-02T07:45:07.672Z,99.99
2017-02-02T07:47:19.896Z,99.99
2017-02-02T07:49:32.275Z,99.99
2017-02-02T07:51:44.594Z,99.99
2017-02-02T07:53:57.049Z,99.99
2017-02-02T07:56:09.410Z,99.99
2017-02-02T07:58:21.832Z,99.99
2017-02-02T08:00:34.165Z,99.99
2017-02-02T08:02:46.510Z,99.99
2017-02-02T08:04:58.906Z,99.99
2017-02-02T08:07:10.206Z,99.99
2017-02-02T08:09:23.700Z,99.99
2017-02-02T08:11:35.921Z,99.99
2017-02-02T08:13:48.993Z,99.99
2017-02-02T08:16:02.515Z,99.99
2017-02-02T08:18:16.013Z,99.99
2017-02-02T08:20:28.481Z,99.99
2017-02-02T08:22:40.781Z,99.99
2017-02-02T08:25:00.623Z,99.99
2017-02-02T08:27:12.869Z,99.99
2017-02-02T08:29:25.285Z,99.99
2017-02-02T08:31:37.594Z,99.99
2017-02-02T08:33:49.961Z,99.99
2017-02-02T08:36:02.271Z,99.99
2017-02-02T08:38:14.472Z,99.99
2017-02-02T08:40:26.683Z,99.99
2017-02-02T08:42:38.849Z,99.99
2017-02-02T08:44:51.170Z,99.99
2017-02-02T08:47:03.394Z,99.99
2017-02-02T08:49:13.949Z,99.99
2017-02-02T08:51:26.142Z,99.99
2017-02-02T08:53:38.898Z,99.99
2017-02-02T08:55:51.499Z,99.99
2017-02-02T08:58:03.752Z,99.99
2017-02-02T09:00:15.940Z,99.99
2017-02-02T09:02:28.096Z,99.99
2017-02-02T09:04:40.442Z,99.99
2017-02-02T09:06:52.677Z,99.99
2017-02-02T09:09:04.886Z,99.99
2017-02-02T09:11:17.007Z,99.99
2017-02-02T09:13:29.366Z,99.99
2017-02-02T09:15:41.654Z,99.99
2017-02-02T09:17:53.874Z,99.99
2017-02-02T09:20:01.188Z,99.99
2017-02-02T09:22:13.366Z,99.99
2017-02-02T09:24:25.992Z,99.99
2017-02-02T09:26:33.232Z,99.99
2017-02-02T09:28:45.427Z,99.99
2017-02-02T09:30:57.850Z,99.99
2017-02-02T09:33:10.936Z,99.99
2017-02-02T09:35:23.670Z,99.99
2017-02-02T09:37:36.062Z,99.99
2017-02-02T09:39:48.193Z,99.99
2017-02-02T09:42:04.030Z,99.99
2017-02-02T09:44:20.103Z,99.99
2017-02-02T09:46:36.746Z,99.99
2017-02-02T09:49:02.080Z,99.99
2017-02-02T09:51:14.731Z,99.99
2017-02-02T09:53:27.038Z,99.99
2017-02-02T09:55:39.272Z,99.99
2017-02-02T09:57:51.500Z,99.99
2017-02-02T10:00:03.727Z,99.99
2017-02-02T10:02:16.117Z,99.99
2017-02-02T10:04:28.588Z,99.99
2017-02-02T10:06:39.755Z,99.99
2017-02-02T10:08:52.051Z,99.99
2017-02-02T10:10:59.526Z,99.99
2017-02-02T10:13:11.832Z,99.99
2017-02-02T10:15:22.502Z,99.99
2017-02-02T10:17:34.791Z,99.99
2017-02-02T10:19:46.964Z,99.99
2017-02-02T10:21:59.328Z,99.99
2017-02-02T10:24:06.544Z,99.99
2017-02-02T10:26:18.789Z,99.99
2017-02-02T10:28:31.068Z,99.99
2017-02-02T10:30:38.383Z,99.99
2017-02-02T10:32:45.549Z,99.99
2017-02-02T10:34:57.734Z,99.99
2017-02-02T10:37:10.079Z,99.99
2017-02-02T10:39:17.600Z,99.99
2017-02-02T10:41:30.361Z,99.99
2017-02-02T10:43:37.592Z,99.99
2017-02-02T10:45:50.184Z,99.99
2017-02-02T10:48:02.549Z,99.99
2017-02-02T10:50:14.952Z,99.99
2017-02-02T10:52:27.133Z,99.99
2017-02-02T10:54:39.472Z,99.99
2017-02-02T10:56:51.885Z,99.99
2017-02-02T10:59:04.076Z,99.99
2017-02-02T11:01:20.151Z,99.99
2017-02-02T11:03:32.358Z,99.99
2017-02-02T11:05:44.690Z,99.99
2017-02-02T11:07:57.034Z,99.99
2017-02-02T11:10:09.245Z,99.99
2017-02-02T11:12:16.457Z,99.52
2017-02-02T11:14:28.732Z,97.86
2017-02-02T11:16:41.263Z,98.38
2017-02-02T11:18:53.599Z,96.72
2017-02-02T11:21:05.840Z,95.87
2017-02-02T11:23:18.066Z,94.28
2017-02-02T11:25:30.446Z,95.11
2017-02-02T11:27:42.632Z,93.81
2017-02-02T11:29:55.039Z,94.37
2017-02-02T11:32:07.331Z,90.05
2017-02-02T11:34:19.633Z,90.06
2017-02-02T11:36:32.021Z,94.35
2017-02-02T11:38:44.151Z,86.7
2017-02-02T11:40:54.717Z,92.04
2017-02-02T11:43:06.863Z,95.62
2017-02-02T11:45:20.408Z,90.05
2017-02-02T11:47:32.644Z,86.78
2017-02-02T11:49:45.109Z,91.71
2017-02-02T11:51:57.262Z,94.92
2017-02-02T11:54:09.590Z,91.22
2017-02-02T11:56:21.959Z,94.36
2017-02-02T11:58:34.171Z,95.78
2017-02-02T12:00:46.392Z,95.77
2017-02-02T12:02:54.236Z,95.03
2017-02-02T12:05:06.472Z,93.77
2017-02-02T12:07:13.841Z,96.54
2017-02-02T12:09:21.209Z,90.58
2017-02-02T12:11:28.421Z,95.05
2017-02-02T12:13:40.787Z,93.87
2017-02-02T12:15:52.940Z,97.03
2017-02-02T12:18:05.322Z,95.68
2017-02-02T12:20:17.513Z,96.28
2017-02-02T12:22:31.588Z,97.47
2017-02-02T12:24:44.270Z,96.15
2017-02-02T12:26:55.322Z,96.59
2017-02-02T12:29:08.889Z,93.44
2017-02-02T12:31:21.281Z,95.47
2017-02-02T12:33:23.498Z,95.37
2017-02-02T12:35:35.630Z,99.97
2017-02-02T12:37:47.909Z,98.03
2017-02-02T12:40:00.141Z,99.64
2017-02-02T12:42:12.418Z,99.99
2017-02-02T12:44:24.760Z,99.38
2017-02-02T12:46:37.045Z,99.99
2017-02-02T12:48:49.617Z,99.99
2017-02-02T12:51:01.841Z,99.99
2017-02-02T12:53:14.134Z,99.99
2017-02-02T12:55:26.435Z,99.87
2017-02-02T12:57:38.737Z,99.99
2017-02-02T12:59:51.009Z,98.25
2017-02-02T13:02:03.722Z,99.99
2017-02-02T13:04:11.032Z,99.99
2017-02-02T13:06:23.181Z,99.99
2017-02-02T13:08:35.445Z,99.99
2017-02-02T13:10:47.632Z,99.99
2017-02-02T13:12:59.961Z,99.99
2017-02-02T13:15:12.240Z,99.99
2017-02-02T13:17:24.567Z,99.99
2017-02-02T13:19:36.960Z,99.99
2017-02-02T13:21:49.243Z,96.45
2017-02-02T13:24:01.468Z,99.99
2017-02-02T13:26:13.738Z,99.99
2017-02-02T13:28:25.886Z,99.99
2017-02-02T13:30:38.177Z,99.99
2017-02-02T13:32:45.321Z,99.99
2017-02-02T13:34:57.527Z,99.99
2017-02-02T13:37:09.894Z,99.99
2017-02-02T13:39:22.233Z,99.99
2017-02-02T13:41:29.597Z,99.99
2017-02-02T13:43:41.980Z,99.99
2017-02-02T13:45:54.376Z,99.99
2017-02-02T13:48:06.649Z,99.68
2017-02-02T13:50:18.929Z,99.99
2017-02-02T13:52:31.228Z,99.99
2017-02-02T13:54:43.855Z,99.99
2017-02-02T13:56:56.237Z,99.99
2017-02-02T13:58:58.475Z,99.99
2017-02-02T14:01:10.703Z,99.99
2017-02-02T14:03:23.010Z,99.99
2017-02-02T14:05:35.438Z,99.27
2017-02-02T14:07:47.726Z,99.99
2017-02-02T14:09:59.979Z,98.3
2017-02-02T14:12:12.317Z,99.62
2017-02-02T14:14:24.609Z,99.16
2017-02-02T14:16:39.388Z,99.76
2017-02-02T14:18:51.998Z,95.52
2017-02-02T14:21:04.383Z,99.09
2017-02-02T14:23:16.735Z,99.99
2017-02-02T14:25:29.035Z,99.61
2017-02-02T14:27:56.322Z,99.96
2017-02-02T14:30:48.055Z,99.99
2017-02-02T14:33:00.366Z,99.99
2017-02-02T14:35:12.730Z,99.95
2017-02-02T14:37:25.076Z,99.19
2017-02-02T14:39:32.397Z,99.99
2017-02-02T14:41:44.751Z,99.85
2017-02-02T14:43:57.086Z,99.99
2017-02-02T14:46:09.519Z,99.99
2017-02-02T14:48:22.245Z,99.99
2017-02-02T14:50:34.483Z,99.99
2017-02-02T14:52:46.769Z,99.99
2017-02-02T14:54:59.002Z,99.99
2017-02-02T14:57:11.708Z,99.99
2017-02-02T14:59:23.995Z,99.99
2017-02-02T15:01:36.235Z,99.99
2017-02-02T15:03:43.654Z,99.99
2017-02-02T15:05:55.788Z,99.99
2017-02-02T15:08:08.281Z,99.99
2017-02-02T15:10:20.498Z,99.99
2017-02-02T15:12:32.679Z,99.99
2017-02-02T15:14:40.049Z,99.99
2017-02-02T15:16:52.976Z,99.99
2017-02-02T15:19:05.322Z,99.99
2017-02-02T15:21:18.089Z,99.99
2017-02-02T15:23:30.615Z,99.99
2017-02-02T15:25:43.319Z,99.99
2017-02-02T15:27:55.729Z,99.99
2017-02-02T15:30:03.030Z,99.99
2017-02-02T15:32:15.296Z,99.99
2017-02-02T15:34:27.494Z,99.99
2017-02-02T15:36:35.097Z,99.99
2017-02-02T15:38:42.881Z,99.99
2017-02-02T15:40:55.845Z,99.99
2017-02-02T15:43:08.099Z,99.99
2017-02-02T15:45:20.438Z,99.99
2017-02-02T15:47:28.574Z,99.99
2017-02-02T15:49:40.905Z,99.99
2017-02-02T15:51:53.098Z,99.99
2017-02-02T15:53:58.686Z,99.99
2017-02-02T15:56:11.287Z,99.99
2017-02-02T15:58:23.917Z,99.99
2017-02-02T16:00:36.260Z,99.99
2017-02-02T16:02:48.944Z,99.99
2017-02-02T16:05:01.184Z,99.99
2017-02-02T16:07:13.387Z,99.99
2017-02-02T16:09:25.792Z,99.99
2017-02-02T16:11:38.201Z,99.99
2017-02-02T16:13:50.445Z,99.99
2017-02-02T16:16:02.716Z,99.99
2017-02-02T16:18:15.206Z,99.99
2017-02-02T16:20:22.409Z,99.99
2017-02-02T16:22:29.817Z,99.99
2017-02-02T16:24:37.745Z,99.99
2017-02-02T16:26:53.272Z,99.99
2017-02-02T16:29:05.789Z,99.99
2017-02-02T16:31:20.348Z,99.99
2017-02-02T16:33:32.640Z,99.99
2017-02-02T16:35:49.007Z,99.99
2017-02-02T16:38:01.204Z,99.99
2017-02-02T16:40:15.680Z,99.99
2017-02-02T16:42:33.350Z,99.99
2017-02-02T16:44:53.579Z,99.99
2017-02-02T16:47:17.493Z,99.99
2017-02-02T16:49:49.806Z,99.99
2017-02-02T16:52:16.050Z,99.99
2017-02-02T16:54:53.631Z,99.99
2017-02-02T16:57:21.150Z,99.99
2017-02-02T16:59:46.674Z,99.99
2017-02-02T17:02:08.508Z,99.99
2017-02-02T17:04:29.789Z,99.99
2017-02-02T17:06:52.259Z,99.99
2017-02-02T17:09:20.550Z,99.99
2017-02-02T17:11:47.388Z,99.99
2017-02-02T17:14:21.023Z,99.99
2017-02-02T17:19:25.743Z,99.99
2017-02-02T17:22:00.185Z,99.99
2017-02-02T17:24:37.595Z,99.99
2017-02-02T17:27:20.140Z,99.99
2017-02-02T17:30:05.464Z,99.99
2017-02-02T17:32:49.963Z,99.99
2017-02-02T17:35:34.588Z,99.99
2017-02-02T17:38:19.890Z,99.99
2017-02-02T17:41:08.463Z,99.99
2017-02-02T17:43:56.824Z,99.99
2017-02-02T17:46:43.776Z,99.99
2017-02-02T17:49:24.506Z,99.99
2017-02-02T17:52:07.084Z,99.99
2017-02-02T17:54:43.325Z,99.99
2017-02-02T17:57:19.681Z,99.99
2017-02-02T17:59:57.343Z,99.99
2017-02-02T18:02:40.071Z,99.99
2017-02-02T18:05:14.348Z,99.99
2017-02-02T18:07:52.685Z,99.99
2017-02-02T18:10:35.928Z,99.99
2017-02-02T18:13:26.159Z,99.99
2017-02-02T18:16:03.973Z,99.99
2017-02-02T18:18:39.807Z,99.99
2017-02-02T18:21:10.539Z,99.99
2017-02-02T18:23:44.060Z,99.99
2017-02-02T18:26:24.227Z,99.99
2017-02-02T18:29:07.373Z,99.99
2017-02-02T18:31:29.941Z,99.99
2017-02-02T18:33:47.983Z,99.99
2017-02-02T18:36:06.293Z,99.99
2017-02-02T18:38:59.478Z,99.99
2017-02-02T18:41:58.776Z,99.99
2017-02-02T18:45:00.335Z,99.99
2017-02-02T18:48:00.413Z,99.99
2017-02-02T18:51:02.039Z,99.99
2017-02-02T18:54:00.069Z,99.99
2017-02-02T18:57:16.388Z,99.99
2017-02-02T19:00:28.243Z,99.99
2017-02-02T19:03:34.773Z,99.99
2017-02-02T19:06:08.710Z,99.99
2017-02-02T19:08:23.826Z,99.99
2017-02-02T19:11:14.319Z,99.99
2017-02-02T19:13:53.897Z,99.99
2017-02-02T19:16:06.562Z,99.99
2017-02-02T19:18:47.963Z,99.99
2017-02-02T19:21:39.742Z,99.99
2017-02-02T19:24:28.323Z,99.99
2017-02-02T19:27:21.814Z,99.99
2017-02-02T19:30:21.392Z,99.99
2017-02-02T19:33:18.567Z,99.99
2017-02-02T19:36:19.727Z,99.99
2017-02-02T19:39:14.962Z,99.99
2017-02-02T19:42:15.569Z,99.99
2017-02-02T19:45:11.016Z,99.99
2017-02-02T19:47:53.922Z,99.99
2017-02-02T19:50:06.976Z,99.99
2017-02-02T19:54:32.698Z,99.99
2017-02-02T19:56:47.958Z,99.99
2017-02-02T19:59:02.713Z,99.99
2017-02-02T20:01:19.794Z,99.99
2017-02-02T20:03:36.980Z,99.99
2017-02-02T20:05:49.669Z,99.99
2017-02-02T20:08:00.389Z,99.99
2017-02-02T20:10:12.795Z,99.99
2017-02-02T20:12:25.445Z,99.99
2017-02-02T20:15:01.709Z,99.99
2017-02-02T20:17:12.300Z,99.99
2017-02-02T20:19:24.728Z,99.99
2017-02-02T20:21:37.087Z,99.99
2017-02-02T20:23:49.584Z,99.99
2017-02-02T20:26:01.971Z,99.99
2017-02-02T20:28:14.204Z,99.99
2017-02-02T20:30:16.776Z,99.99
2017-02-02T20:34:39.861Z,99.99
2017-02-02T20:36:52.310Z,99.99
2017-02-02T20:39:04.868Z,99.99
2017-02-02T20:41:12.148Z,99.99
2017-02-02T20:43:24.521Z,99.99
2017-02-02T20:45:38.786Z,99.99
2017-02-02T20:47:51.365Z,99.99
2017-02-02T20:50:03.648Z,99.99
2017-02-02T20:52:16.022Z,99.99
2017-02-02T20:54:28.230Z,99.99
2017-02-02T20:56:40.436Z,99.99
2017-02-02T20:58:53.005Z,99.99
2017-02-02T21:03:15.886Z,99.99
2017-02-02T21:05:28.344Z,99.99
2017-02-02T21:07:36.514Z,99.99
2017-02-02T21:09:49.254Z,99.99
2017-02-02T21:12:02.327Z,99.99
2017-02-02T21:14:15.171Z,99.99
2017-02-02T21:16:22.659Z,99.99
2017-02-02T21:18:31.676Z,99.99
2017-02-02T21:20:46.068Z,99.99
2017-02-02T21:22:58.786Z,99.99
2017-02-02T21:25:12.202Z,99.99
2017-02-02T21:27:24.924Z,99.99
2017-02-02T21:29:32.260Z,99.99
2017-02-02T21:31:44.895Z,99.99
2017-02-02T21:34:00.763Z,99.99
2017-02-02T21:36:34.543Z,99.99
2017-02-02T21:39:08.356Z,99.99
2017-02-02T21:41:46.144Z,99.99
2017-02-02T21:44:34.317Z,99.99
2017-02-02T21:46:59.868Z,99.99
2017-02-02T21:49:07.236Z,99.99
2017-02-02T21:51:19.718Z,99.99
2017-02-02T21:53:32.137Z,99.99
2017-02-02T21:55:44.551Z,99.99
2017-02-02T21:57:56.852Z,99.99
2017-02-02T22:00:09.286Z,99.99
2017-02-02T22:02:21.555Z,99.99
2017-02-02T22:04:33.826Z,99.99
2017-02-02T22:06:46.157Z,99.99
2017-02-02T22:08:53.476Z,99.99
2017-02-02T22:11:05.682Z,99.99
2017-02-02T22:13:17.904Z,99.99
2017-02-02T22:15:25.413Z,99.99
2017-02-02T22:17:37.700Z,99.99
2017-02-02T22:19:49.976Z,99.99
2017-02-02T22:22:02.195Z,99.99
2017-02-02T22:24:09.443Z,99.99
2017-02-02T22:26:21.735Z,99.99
2017-02-02T22:28:33.919Z,99.99
2017-02-02T22:30:46.312Z,99.99
2017-02-02T22:32:58.591Z,99.99
2017-02-02T22:35:10.793Z,99.99
2017-02-02T22:37:23.068Z,99.99
2017-02-02T22:39:35.526Z,99.99
2017-02-02T22:41:47.735Z,99.99
2017-02-02T22:43:59.953Z,99.99
2017-02-02T22:46:12.278Z,99.99
2017-02-02T22:48:24.587Z,99.99
2017-02-02T22:50:36.913Z,99.99
2017-02-02T22:52:49.167Z,99.99
2017-02-02T22:55:01.398Z,99.99
2017-02-02T22:57:13.727Z,99.99
2017-02-02T23:01:36.516Z,99.99
2017-02-02T23:03:48.974Z,99.99
2017-02-02T23:05:56.167Z,99.99
2017-02-02T23:08:08.605Z,99.99
2017-02-02T23:10:21.359Z,99.99
2017-02-02T23:12:33.677Z,99.99
2017-02-02T23:14:46.536Z,99.99
2017-02-02T23:16:59.149Z,99.99
2017-02-02T23:19:11.375Z,99.99
2017-02-02T23:21:23.736Z,99.99
2017-02-02T23:23:36.093Z,99.99
2017-02-02T23:25:50.046Z,99.99
2017-02-02T23:28:02.501Z,99.99
2017-02-02T23:30:14.746Z,99.99
2017-02-02T23:32:27.072Z,99.99
2017-02-02T23:34:39.409Z,99.99
2017-02-02T23:36:46.655Z,99.99
2017-02-02T23:38:58.803Z,99.99
2017-02-02T23:41:11.110Z,99.99
2017-02-02T23:43:23.433Z,99.99
2017-02-02T23:45:35.601Z,99.99
2017-02-02T23:47:48.019Z,99.99
2017-02-02T23:50:00.254Z,99.99
2017-02-02T23:52:12.632Z,99.99
2017-02-02T23:54:24.944Z,99.99
2017-02-02T23:56:37.222Z,99.99
2017-02-02T23:58:42.881Z,99.99
